Time;durP1;ratioP1;P1;durP2;ratioP2;P2;SDS_P1;SDS_P2;PMS_P1;PMS_P2;Temp;Humidity;BMP_temperature;BMP_pressure;BME280_temperature;BME280_humidity;BME280_pressure;Samples;Min_cycle;Max_cycle;Signal;HPM_P1;HPM_P2
2021/08/30 00:01:52;;;;;;;2.07;1.87;;;17.90;99.90;;;;;;5025596;28;20204;-75
2021/08/30 00:04:18;;;;;;;4.70;1.70;;;17.90;99.90;;;;;;5012233;28;20173;-76
2021/08/30 00:06:44;;;;;;;1.57;1.47;;;17.90;99.90;;;;;;5024085;28;20306;-76
2021/08/30 00:09:10;;;;;;;4.63;2.57;;;17.80;99.90;;;;;;5025517;28;20191;-76
2021/08/30 00:11:36;;;;;;;1.80;1.70;;;17.80;99.90;;;;;;5016802;28;20450;-76
2021/08/30 00:14:02;;;;;;;1.60;1.43;;;17.70;99.90;;;;;;5014616;28;20443;-76
2021/08/30 00:16:28;;;;;;;2.60;2.40;;;17.70;99.90;;;;;;5021691;28;20189;-76
2021/08/30 00:18:54;;;;;;;0.80;0.80;;;17.80;99.90;;;;;;5030522;28;20858;-75
2021/08/30 00:21:19;;;;;;;0.80;0.67;;;17.80;99.90;;;;;;5021800;28;20203;-76
2021/08/30 00:23:45;;;;;;;1.90;1.80;;;17.70;99.90;;;;;;5014163;28;20180;-75
2021/08/30 00:26:11;;;;;;;3.00;2.70;;;17.70;99.90;;;;;;5024084;28;20290;-76
2021/08/30 00:28:36;;;;;;;2.77;2.07;;;17.70;99.90;;;;;;5021759;28;20602;-76
2021/08/30 00:31:02;;;;;;;2.40;1.73;;;17.70;99.90;;;;;;5020833;28;20184;-76
2021/08/30 00:33:27;;;;;;;1.03;0.97;;;17.70;99.90;;;;;;5026911;28;20449;-76
2021/08/30 00:35:53;;;;;;;4.50;2.23;;;17.70;99.90;;;;;;5034580;28;20194;-77
2021/08/30 00:38:19;;;;;;;1.00;0.80;;;17.70;99.90;;;;;;5017300;28;20239;-76
2021/08/30 00:40:44;;;;;;;5.90;3.50;;;17.70;99.90;;;;;;5024706;28;20720;-76
2021/08/30 00:43:10;;;;;;;1.67;1.40;;;17.70;99.90;;;;;;5017937;28;20203;-77
2021/08/30 00:45:36;;;;;;;3.13;1.47;;;17.70;99.90;;;;;;5021061;28;20184;-76
2021/08/30 00:48:02;;;;;;;2.97;2.57;;;17.70;99.90;;;;;;5031440;28;20541;-77
2021/08/30 00:50:28;;;;;;;3.30;2.23;;;17.70;99.90;;;;;;5027142;28;20607;-77
2021/08/30 00:52:54;;;;;;;2.00;1.80;;;17.70;99.90;;;;;;5017589;28;20549;-76
2021/08/30 00:55:20;;;;;;;1.60;1.50;;;17.70;99.90;;;;;;5032824;28;20441;-77
2021/08/30 00:57:45;;;;;;;0.80;0.70;;;17.70;99.90;;;;;;5028799;28;20487;-77
2021/08/30 01:00:12;;;;;;;2.40;1.70;;;17.60;99.90;;;;;;5029085;28;20202;-75
2021/08/30 01:02:39;;;;;;;2.83;2.00;;;17.70;99.90;;;;;;5027277;28;20212;-77
2021/08/30 01:05:06;;;;;;;2.97;2.80;;;17.70;99.90;;;;;;5031740;28;20808;-76
2021/08/30 01:07:43;;;;;;;2.70;1.40;;;17.60;99.90;;;;;;5024148;28;20437;-76
2021/08/30 01:10:14;;;;;;;1.73;1.37;;;17.60;99.90;;;;;;5033187;28;20456;-76
2021/08/30 01:12:53;;;;;;;3.57;1.90;;;17.70;99.90;;;;;;5032973;28;20426;-76
2021/08/30 01:15:39;;;;;;;2.20;1.73;;;17.70;99.90;;;;;;5033286;28;20453;-75
2021/08/30 01:18:09;;;;;;;2.77;1.70;;;17.70;99.90;;;;;;5036877;28;20445;-76
2021/08/30 01:20:59;;;;;;;1.67;1.57;;;17.70;99.90;;;;;;5030651;28;20879;-76
2021/08/30 01:23:27;;;;;;;1.93;1.17;;;17.70;99.90;;;;;;5017540;28;20454;-76
2021/08/30 01:25:55;;;;;;;1.97;1.87;;;17.60;99.90;;;;;;5020915;28;20439;-76
2021/08/30 01:28:23;;;;;;;2.17;1.50;;;17.60;99.90;;;;;;5036856;28;20430;-76
2021/08/30 01:30:53;;;;;;;2.90;2.70;;;17.60;99.90;;;;;;5023840;28;20443;-76
2021/08/30 01:33:22;;;;;;;1.80;1.70;;;17.60;99.90;;;;;;5016970;28;20439;-76
2021/08/30 01:35:48;;;;;;;2.80;0.93;;;17.60;99.90;;;;;;5028715;28;20442;-76
2021/08/30 01:38:14;;;;;;;3.50;1.60;;;17.70;99.90;;;;;;5025305;28;20560;-76
2021/08/30 01:40:40;;;;;;;1.73;1.40;;;17.70;99.90;;;;;;5025461;28;20446;-76
2021/08/30 01:43:08;;;;;;;1.53;1.43;;;17.70;99.90;;;;;;5023396;28;20427;-76
2021/08/30 01:45:35;;;;;;;9.10;2.00;;;17.60;99.90;;;;;;5030870;28;20438;-76
2021/08/30 01:48:04;;;;;;;1.20;1.10;;;17.60;99.90;;;;;;5015557;28;20424;-76
2021/08/30 01:50:31;;;;;;;1.67;1.57;;;17.60;99.90;;;;;;5027773;28;20443;-76
2021/08/30 01:53:00;;;;;;;2.77;1.90;;;17.60;99.90;;;;;;5014647;28;20427;-76
2021/08/30 02:00:45;;;;;;;1.93;1.43;;;17.60;99.90;;;;;;5027114;28;20438;-76
2021/08/30 02:03:12;;;;;;;1.40;1.30;;;17.50;99.90;;;;;;5015190;28;20431;-76
2021/08/30 02:05:38;;;;;;;2.40;2.20;;;17.50;99.90;;;;;;5022046;28;20418;-75
2021/08/30 02:08:04;;;;;;;2.50;2.30;;;17.50;99.90;;;;;;5017086;28;20900;-75
2021/08/30 02:10:29;;;;;;;1.80;1.00;;;17.50;99.90;;;;;;5013135;28;20262;-75
2021/08/30 02:12:55;;;;;;;2.10;1.53;;;17.50;99.90;;;;;;5017455;28;20474;-77
2021/08/30 02:15:21;;;;;;;2.03;1.83;;;17.60;99.90;;;;;;5030231;28;20175;-77
2021/08/30 02:17:53;;;;;;;3.40;1.93;;;17.50;99.90;;;;;;5017188;28;20184;-76
2021/08/30 02:20:25;;;;;;;2.63;2.43;;;17.50;99.90;;;;;;5017559;28;20180;-76
2021/08/30 02:22:50;;;;;;;1.57;1.47;;;17.50;99.90;;;;;;5013880;28;20454;-76
2021/08/30 02:25:19;;;;;;;2.40;2.20;;;17.50;99.90;;;;;;5021102;28;20581;-75
2021/08/30 02:27:52;;;;;;;2.70;2.13;;;17.50;99.90;;;;;;5014391;28;20184;-76
2021/08/30 02:30:23;;;;;;;1.67;1.30;;;17.50;99.90;;;;;;5019547;28;20935;-76
2021/08/30 02:32:52;;;;;;;1.00;1.00;;;17.50;99.90;;;;;;5030145;28;20446;-76
2021/08/30 02:35:22;;;;;;;2.53;1.70;;;17.50;99.90;;;;;;5020200;28;20446;-76
2021/08/30 02:37:50;;;;;;;1.03;0.93;;;17.60;99.90;;;;;;5012196;28;20438;-76
2021/08/30 02:40:16;;;;;;;4.23;2.43;;;17.60;99.90;;;;;;5014351;28;20443;-76
2021/08/30 02:42:42;;;;;;;2.90;1.50;;;17.60;99.90;;;;;;5014698;28;20499;-77
2021/08/30 02:45:09;;;;;;;3.47;1.97;;;17.60;99.90;;;;;;5012911;28;20435;-76
2021/08/30 02:47:37;;;;;;;1.53;1.43;;;17.60;99.90;;;;;;5024715;28;20183;-77
2021/08/30 02:50:04;;;;;;;2.90;2.37;;;17.60;99.90;;;;;;5029409;28;20499;-77
2021/08/30 02:52:32;;;;;;;3.00;2.37;;;17.60;99.90;;;;;;5030756;28;20442;-77
2021/08/30 02:54:58;;;;;;;2.07;1.97;;;17.50;99.90;;;;;;5024280;28;20486;-76
2021/08/30 02:57:24;;;;;;;4.60;1.70;;;17.50;99.90;;;;;;5013855;28;20473;-77
2021/08/30 02:59:52;;;;;;;3.47;2.40;;;17.50;99.90;;;;;;5022687;28;20469;-76
2021/08/30 03:02:24;;;;;;;6.20;5.33;;;17.50;99.90;;;;;;5029375;28;20458;-76
2021/08/30 03:04:52;;;;;;;0.90;0.63;;;17.50;99.90;;;;;;5025860;28;20514;-76
2021/08/30 03:07:18;;;;;;;8.77;3.83;;;17.50;99.90;;;;;;5014480;28;20431;-76
2021/08/30 03:09:44;;;;;;;0.90;0.60;;;17.50;99.90;;;;;;5019540;28;20454;-76
2021/08/30 03:12:11;;;;;;;2.33;2.13;;;17.50;99.90;;;;;;5020010;28;20206;-76
2021/08/30 03:14:39;;;;;;;3.37;1.33;;;17.40;99.90;;;;;;5012991;28;20438;-76
2021/08/30 03:17:12;;;;;;;2.27;2.13;;;17.50;99.90;;;;;;5011752;28;20497;-76
2021/08/30 03:19:44;;;;;;;1.40;1.30;;;17.50;99.90;;;;;;5025344;28;20834;-76
2021/08/30 03:22:11;;;;;;;1.40;1.30;;;17.50;99.90;;;;;;5014018;28;20512;-76
2021/08/30 03:24:39;;;;;;;1.97;1.63;;;17.50;99.90;;;;;;5028670;28;20441;-76
2021/08/30 03:27:06;;;;;;;2.90;2.70;;;17.50;99.90;;;;;;5015262;28;20518;-76
2021/08/30 03:29:33;;;;;;;1.90;1.80;;;17.50;99.90;;;;;;5016213;28;20546;-76
2021/08/30 03:32:01;;;;;;;3.60;3.40;;;17.50;99.90;;;;;;5027125;28;20444;-75
2021/08/30 03:34:27;;;;;;;2.17;2.00;;;17.50;99.90;;;;;;5013007;28;20430;-76
2021/08/30 03:36:54;;;;;;;2.57;2.37;;;17.50;99.90;;;;;;5010101;28;20438;-76
2021/08/30 03:39:20;;;;;;;2.60;1.60;;;17.40;99.90;;;;;;5029934;28;20453;-76
2021/08/30 03:41:46;;;;;;;2.60;2.40;;;17.40;99.90;;;;;;5026389;28;20474;-76
2021/08/30 03:44:12;;;;;;;6.53;2.60;;;17.40;99.90;;;;;;5027488;28;20449;-75
2021/08/30 03:46:39;;;;;;;7.13;3.33;;;17.40;99.90;;;;;;5030787;28;20442;-76
2021/08/30 03:49:05;;;;;;;2.97;2.77;;;17.40;99.90;;;;;;5029043;28;20466;-76
2021/08/30 03:51:32;;;;;;;1.23;1.13;;;17.40;99.90;;;;;;5014200;28;20441;-76
2021/08/30 03:53:59;;;;;;;1.87;1.77;;;17.40;99.90;;;;;;5027337;28;20442;-76
2021/08/30 03:56:26;;;;;;;3.33;2.40;;;17.30;99.90;;;;;;5018901;28;20451;-76
2021/08/30 03:58:53;;;;;;;5.83;2.17;;;17.30;99.90;;;;;;5015981;28;20461;-75
2021/08/30 04:01:24;;;;;;;1.23;1.13;;;17.30;99.90;;;;;;5020860;28;20984;-76
2021/08/30 04:03:53;;;;;;;4.50;3.47;;;17.30;99.90;;;;;;5017655;28;20517;-76
2021/08/30 04:06:19;;;;;;;2.90;2.70;;;17.30;99.90;;;;;;5024780;28;20434;-76
2021/08/30 04:08:45;;;;;;;1.70;1.60;;;17.30;99.90;;;;;;5014376;28;20478;-76
2021/08/30 04:11:13;;;;;;;1.87;1.77;;;17.40;99.90;;;;;;5031978;28;20446;-76
2021/08/30 04:13:39;;;;;;;7.70;2.70;;;17.40;99.90;;;;;;5018343;28;20442;-77
2021/08/30 04:16:05;;;;;;;7.20;3.17;;;17.40;99.90;;;;;;5019505;28;20442;-77
2021/08/30 04:18:31;;;;;;;6.97;3.77;;;17.30;99.90;;;;;;5017286;28;20462;-76
2021/08/30 04:20:56;;;;;;;1.43;1.20;;;17.40;99.90;;;;;;5025049;28;20469;-76
2021/08/30 04:23:22;;;;;;;3.17;2.87;;;17.40;99.90;;;;;;5030660;28;20222;-76
2021/08/30 04:25:48;;;;;;;1.47;1.37;;;17.40;99.90;;;;;;5019129;28;20241;-75
2021/08/30 04:28:13;;;;;;;3.00;2.80;;;17.40;99.90;;;;;;5012803;28;20231;-77
2021/08/30 04:30:39;;;;;;;1.83;1.73;;;17.40;99.90;;;;;;5012374;28;20532;-77
2021/08/30 04:33:09;;;;;;;4.17;2.03;;;17.40;99.90;;;;;;5026571;28;20191;-77
2021/08/30 04:35:34;;;;;;;9.50;4.17;;;17.40;99.90;;;;;;5025943;28;20176;-76
2021/08/30 04:38:00;;;;;;;2.60;1.60;;;17.40;99.90;;;;;;5026885;28;20507;-76
2021/08/30 04:40:25;;;;;;;3.20;2.03;;;17.30;99.90;;;;;;5015151;28;20198;-76
2021/08/30 04:42:51;;;;;;;3.87;1.83;;;17.30;99.90;;;;;;5016341;28;20211;-76
2021/08/30 04:45:17;;;;;;;4.23;3.17;;;17.30;99.90;;;;;;5021079;28;20723;-76
2021/08/30 04:47:42;;;;;;;1.83;1.73;;;17.30;99.90;;;;;;5018523;28;20180;-75
2021/08/30 04:50:09;;;;;;;2.53;2.37;;;17.30;99.90;;;;;;5018258;28;20262;-76
2021/08/30 04:52:34;;;;;;;3.57;1.67;;;17.30;99.90;;;;;;5013966;28;20648;-77
2021/08/30 04:55:00;;;;;;;3.87;1.87;;;17.40;99.90;;;;;;5013755;28;20550;-77
2021/08/30 04:57:25;;;;;;;3.43;3.13;;;17.40;99.90;;;;;;5013706;28;20211;-77
2021/08/30 04:59:51;;;;;;;3.10;2.87;;;17.40;99.90;;;;;;5012831;28;20226;-75
2021/08/30 05:02:16;;;;;;;3.37;1.60;;;17.40;99.90;;;;;;5013816;28;20236;-78
2021/08/30 05:04:42;;;;;;;3.97;2.97;;;17.40;99.90;;;;;;5012996;28;20230;-75
2021/08/30 05:07:07;;;;;;;2.50;2.07;;;17.40;99.90;;;;;;5011424;28;20179;-76
2021/08/30 05:09:33;;;;;;;1.57;1.33;;;17.40;99.90;;;;;;5025008;28;20203;-77
2021/08/30 05:11:58;;;;;;;2.40;2.20;;;17.30;99.90;;;;;;5021511;28;20180;-76
2021/08/30 05:14:24;;;;;;;4.30;3.90;;;17.30;99.90;;;;;;5034206;28;20546;-76
2021/08/30 05:16:50;;;;;;;2.40;2.00;;;17.30;99.90;;;;;;5038468;28;20230;-76
2021/08/30 05:19:15;;;;;;;1.70;1.20;;;17.30;99.90;;;;;;5023724;28;20196;-76
2021/08/30 05:21:41;;;;;;;1.40;1.30;;;17.30;99.90;;;;;;5029854;28;20207;-75
2021/08/30 05:24:09;;;;;;;2.33;1.83;;;17.30;99.90;;;;;;5018355;28;20696;-76
2021/08/30 05:26:36;;;;;;;3.07;2.13;;;17.30;99.90;;;;;;5016333;28;20175;-75
2021/08/30 05:29:02;;;;;;;3.00;2.20;;;17.30;99.90;;;;;;5020834;28;20453;-76
2021/08/30 05:31:28;;;;;;;3.73;2.33;;;17.30;99.90;;;;;;5027346;28;20477;-76
2021/08/30 05:33:53;;;;;;;3.03;2.80;;;17.30;99.90;;;;;;5034599;28;20472;-75
2021/08/30 05:36:19;;;;;;;2.50;1.57;;;17.30;99.90;;;;;;5033518;28;20183;-75
2021/08/30 05:38:44;;;;;;;3.10;2.57;;;17.30;99.90;;;;;;5028319;28;20202;-75
2021/08/30 05:41:10;;;;;;;3.30;3.07;;;17.30;99.90;;;;;;5025302;28;20576;-76
2021/08/30 05:43:35;;;;;;;4.70;1.07;;;17.30;99.90;;;;;;5027718;28;20195;-76
2021/08/30 05:46:01;;;;;;;3.33;3.03;;;17.30;99.90;;;;;;5020173;28;20176;-76
2021/08/30 05:48:27;;;;;;;3.17;2.10;;;17.20;99.90;;;;;;5013800;28;20203;-76
2021/08/30 05:50:52;;;;;;;1.97;1.77;;;17.20;99.90;;;;;;5021073;28;20183;-76
2021/08/30 05:53:19;;;;;;;5.07;4.67;;;17.20;99.90;;;;;;5029194;28;20177;-76
2021/08/30 05:55:45;;;;;;;4.57;4.10;;;17.20;99.90;;;;;;5023638;28;20218;-76
2021/08/30 05:58:10;;;;;;;3.40;3.00;;;17.30;99.90;;;;;;5013830;28;20486;-76
2021/08/30 06:00:36;;;;;;;2.80;2.60;;;17.20;99.90;;;;;;5018423;28;20194;-76
2021/08/30 06:03:01;;;;;;;2.30;1.83;;;17.30;99.90;;;;;;5031538;28;20216;-76
2021/08/30 06:05:27;;;;;;;3.20;2.70;;;17.20;99.90;;;;;;5033350;28;20189;-76
2021/08/30 06:07:53;;;;;;;5.30;2.80;;;17.20;99.90;;;;;;5025990;28;20642;-76
2021/08/30 06:10:18;;;;;;;5.13;1.87;;;17.20;99.90;;;;;;5011823;28;20184;-76
2021/08/30 06:12:44;;;;;;;4.73;3.23;;;17.30;99.90;;;;;;5024728;28;20180;-76
2021/08/30 06:15:10;;;;;;;5.57;4.80;;;17.30;99.90;;;;;;5013716;28;20246;-76
2021/08/30 06:17:35;;;;;;;2.70;2.13;;;17.40;99.90;;;;;;5016716;28;20210;-76
2021/08/30 06:20:01;;;;;;;2.17;1.87;;;17.40;99.90;;;;;;5028560;28;20186;-76
2021/08/30 06:22:26;;;;;;;2.00;1.90;;;17.40;99.90;;;;;;5031763;28;20234;-76
2021/08/30 06:24:52;;;;;;;2.20;2.00;;;17.50;99.90;;;;;;5021030;28;20168;-76
2021/08/30 06:27:20;;;;;;;3.23;3.03;;;17.50;99.90;;;;;;5013440;28;20172;-76
2021/08/30 06:29:47;;;;;;;28.07;4.20;;;17.60;99.90;;;;;;5016786;28;20628;-76
2021/08/30 06:32:13;;;;;;;3.53;3.33;;;17.60;99.90;;;;;;5013482;28;20474;-76
2021/08/30 06:34:38;;;;;;;3.87;2.23;;;17.70;99.90;;;;;;5028688;28;20470;-76
2021/08/30 06:37:04;;;;;;;9.17;3.00;;;17.80;99.90;;;;;;5018813;28;20705;-76
2021/08/30 06:39:30;;;;;;;3.17;2.97;;;17.80;99.90;;;;;;5011875;28;20263;-76
2021/08/30 06:41:55;;;;;;;12.13;3.23;;;17.90;99.90;;;;;;5026463;28;20718;-76
2021/08/30 06:44:21;;;;;;;3.70;2.30;;;17.90;99.90;;;;;;5020082;28;20683;-76
2021/08/30 06:46:46;;;;;;;1.03;0.93;;;17.90;99.90;;;;;;5013962;28;20238;-76
2021/08/30 06:49:12;;;;;;;5.47;4.33;;;18.00;99.90;;;;;;5026544;28;20184;-76
2021/08/30 06:51:38;;;;;;;4.80;1.63;;;18.00;99.90;;;;;;5016580;28;20186;-76
2021/08/30 06:54:03;;;;;;;3.00;2.10;;;18.10;99.90;;;;;;5014826;28;20185;-76
2021/08/30 06:56:29;;;;;;;7.03;3.23;;;18.10;99.90;;;;;;5030337;28;20187;-76
2021/08/30 06:58:54;;;;;;;3.50;1.53;;;18.30;99.90;;;;;;5024522;28;20199;-76
2021/08/30 07:01:20;;;;;;;4.30;2.77;;;18.30;99.90;;;;;;5020324;28;20248;-76
2021/08/30 07:03:45;;;;;;;4.10;2.90;;;18.40;99.90;;;;;;5014470;28;20184;-76
2021/08/30 07:06:11;;;;;;;2.80;2.13;;;18.40;99.90;;;;;;5012367;28;20179;-76
2021/08/30 07:08:36;;;;;;;3.20;3.00;;;18.40;99.90;;;;;;5021054;28;20203;-76
2021/08/30 07:11:02;;;;;;;2.43;1.73;;;18.40;99.90;;;;;;5018684;28;20262;-76
2021/08/30 07:13:28;;;;;;;7.57;3.87;;;18.40;99.90;;;;;;5006974;28;20200;-76
2021/08/30 07:15:53;;;;;;;3.03;2.80;;;18.30;99.90;;;;;;5020220;28;20442;-76
2021/08/30 07:18:19;;;;;;;2.87;2.67;;;18.30;99.90;;;;;;5018942;28;20669;-76
2021/08/30 07:20:45;;;;;;;5.63;3.27;;;18.30;99.90;;;;;;5018516;28;20171;-76
2021/08/30 07:23:11;;;;;;;9.83;4.80;;;18.20;99.90;;;;;;5021356;28;20176;-76
2021/08/30 07:25:36;;;;;;;2.40;1.40;;;18.20;99.90;;;;;;5016736;28;20250;-76
2021/08/30 07:28:02;;;;;;;2.13;1.70;;;18.20;99.90;;;;;;5031740;28;21046;-76
2021/08/30 07:30:28;;;;;;;1.60;1.50;;;18.20;99.90;;;;;;5032249;28;20199;-77
2021/08/30 07:32:53;;;;;;;6.50;3.50;;;18.20;99.90;;;;;;5032114;28;20645;-76
2021/08/30 07:35:21;;;;;;;3.67;2.40;;;18.30;99.90;;;;;;5031765;28;20164;-76
2021/08/30 07:37:46;;;;;;;5.03;3.57;;;18.30;99.90;;;;;;5031019;28;20183;-76
2021/08/30 07:40:12;;;;;;;3.43;2.73;;;18.30;99.90;;;;;;5014864;28;20442;-76
2021/08/30 07:42:38;;;;;;;4.30;3.87;;;18.30;99.90;;;;;;5029703;28;20191;-76
2021/08/30 07:45:04;;;;;;;2.97;2.77;;;18.40;99.90;;;;;;5031841;28;20410;-76
2021/08/30 07:47:30;;;;;;;5.93;2.27;;;18.50;99.90;;;;;;5031420;28;20584;-76
2021/08/30 07:49:55;;;;;;;2.43;2.03;;;18.50;99.90;;;;;;5032019;28;20414;-76
2021/08/30 07:52:21;;;;;;;3.97;3.13;;;18.50;99.90;;;;;;5031347;28;20540;-76
2021/08/30 07:54:48;;;;;;;4.43;1.90;;;18.50;99.90;;;;;;5031719;28;20664;-76
2021/08/30 07:57:14;;;;;;;1.90;1.60;;;18.50;99.90;;;;;;5013750;28;20176;-76
2021/08/30 07:59:40;;;;;;;2.80;1.70;;;18.40;99.90;;;;;;5012087;28;20768;-76
2021/08/30 08:02:06;;;;;;;5.23;4.80;;;18.40;99.90;;;;;;5030890;28;20457;-76
2021/08/30 08:04:32;;;;;;;3.10;2.10;;;18.40;99.90;;;;;;5030917;28;20569;-76
2021/08/30 08:06:57;;;;;;;1.93;1.83;;;18.40;99.90;;;;;;5031117;28;20508;-76
2021/08/30 08:09:23;;;;;;;9.23;3.10;;;18.40;99.90;;;;;;5030085;28;20180;-76
2021/08/30 08:11:48;;;;;;;6.53;4.20;;;18.40;99.90;;;;;;5012166;28;20641;-76
2021/08/30 08:14:15;;;;;;;3.13;2.37;;;18.30;99.90;;;;;;5012079;28;21043;-76
2021/08/30 08:16:41;;;;;;;3.93;3.53;;;18.30;99.90;;;;;;5031173;28;20178;-76
2021/08/30 08:19:06;;;;;;;4.73;4.37;;;18.30;99.90;;;;;;5031784;28;20915;-76
2021/08/30 08:21:33;;;;;;;2.90;2.70;;;18.40;99.90;;;;;;5031867;28;20450;-76
2021/08/30 08:24:00;;;;;;;2.53;2.13;;;18.40;99.90;;;;;;5027342;28;20529;-76
2021/08/30 08:26:26;;;;;;;2.30;1.43;;;18.50;99.90;;;;;;5010535;28;20576;-76
2021/08/30 08:28:52;;;;;;;4.93;4.20;;;18.50;99.90;;;;;;5011930;28;20824;-76
2021/08/30 08:31:17;;;;;;;6.70;1.47;;;18.70;99.90;;;;;;5012031;28;20200;-76
2021/08/30 08:33:44;;;;;;;5.20;2.13;;;18.80;99.90;;;;;;5011976;28;20219;-76
2021/08/30 08:36:10;;;;;;;2.70;2.50;;;18.90;99.90;;;;;;5012690;28;20391;-76
2021/08/30 08:38:36;;;;;;;2.33;2.00;;;19.00;99.90;;;;;;5011906;28;20442;-76
2021/08/30 08:41:02;;;;;;;5.63;5.13;;;19.10;99.90;;;;;;5011893;28;20916;-76
2021/08/30 08:43:28;;;;;;;4.40;2.40;;;19.10;99.90;;;;;;5011851;28;20168;-76
2021/08/30 08:45:54;;;;;;;2.10;2.00;;;19.30;99.90;;;;;;5011470;28;20901;-76
2021/08/30 08:48:21;;;;;;;4.43;4.13;;;19.30;99.90;;;;;;5015625;28;20515;-76
2021/08/30 08:50:47;;;;;;;4.27;3.77;;;19.40;99.90;;;;;;5027858;28;20184;-76
2021/08/30 08:53:12;;;;;;;1.73;1.43;;;19.40;99.90;;;;;;5034925;28;20414;-76
2021/08/30 08:55:38;;;;;;;5.00;4.50;;;19.50;99.90;;;;;;5033809;28;20214;-76
2021/08/30 08:58:08;;;;;;;3.87;3.47;;;19.50;99.90;;;;;;5035134;28;20190;-76
2021/08/30 09:00:34;;;;;;;4.27;2.40;;;19.60;99.90;;;;;;5024354;28;20435;-76
2021/08/30 09:02:59;;;;;;;2.47;2.27;;;19.60;99.90;;;;;;5026719;28;21081;-76
2021/08/30 09:05:26;;;;;;;2.93;2.73;;;19.60;99.90;;;;;;5034850;28;20634;-76
2021/08/30 09:07:53;;;;;;;8.80;2.37;;;19.50;99.90;;;;;;5035129;28;20186;-76
2021/08/30 09:10:23;;;;;;;3.07;2.60;;;19.50;99.90;;;;;;5045534;28;20500;-76
2021/08/30 09:12:49;;;;;;;2.80;2.63;;;19.60;99.90;;;;;;5034901;28;20430;-76
2021/08/30 09:15:20;;;;;;;3.83;3.53;;;19.70;99.90;;;;;;5033921;28;20428;-76
2021/08/30 09:17:54;;;;;;;2.23;1.87;;;19.70;99.90;;;;;;5034595;28;20420;-76
2021/08/30 09:20:26;;;;;;;2.30;1.90;;;19.70;99.90;;;;;;5034763;28;20906;-76
2021/08/30 09:22:52;;;;;;;3.47;3.23;;;19.80;99.90;;;;;;5034681;28;20458;-76
2021/08/30 09:25:18;;;;;;;3.37;3.03;;;19.70;99.90;;;;;;5034512;28;20406;-76
2021/08/30 09:27:51;;;;;;;3.57;2.93;;;19.70;99.90;;;;;;5034529;28;20806;-76
2021/08/30 09:30:24;;;;;;;2.77;2.57;;;19.70;99.90;;;;;;5034608;28;20998;-76
2021/08/30 09:32:50;;;;;;;5.33;4.90;;;19.70;99.90;;;;;;5032997;28;20472;-76
2021/08/30 09:35:16;;;;;;;2.63;2.10;;;19.60;99.90;;;;;;5033991;28;20434;-76
2021/08/30 09:37:44;;;;;;;10.03;2.97;;;19.60;99.90;;;;;;5033171;28;20429;-76
2021/08/30 09:40:13;;;;;;;2.87;1.47;;;19.40;99.90;;;;;;5033290;28;20898;-76
2021/08/30 09:42:49;;;;;;;2.53;2.30;;;19.30;99.90;;;;;;5034254;28;20464;-76
2021/08/30 09:45:22;;;;;;;3.00;2.03;;;19.20;99.90;;;;;;5033397;28;20426;-76
2021/08/30 09:47:59;;;;;;;4.07;3.67;;;19.20;99.90;;;;;;5034262;28;20399;-76
2021/08/30 09:50:33;;;;;;;11.20;3.10;;;19.10;99.90;;;;;;5034509;28;20402;-76
2021/08/30 09:53:01;;;;;;;5.13;2.50;;;19.10;99.90;;;;;;5034254;28;20410;-76
2021/08/30 09:55:27;;;;;;;2.40;2.23;;;19.00;99.90;;;;;;5033716;28;20430;-76
2021/08/30 09:57:53;;;;;;;4.47;3.03;;;19.00;99.90;;;;;;5033498;28;20418;-76
2021/08/30 10:00:20;;;;;;;3.90;3.07;;;19.00;99.90;;;;;;5032126;28;20899;-76
2021/08/30 10:02:50;;;;;;;10.37;4.77;;;19.00;99.90;;;;;;5020889;28;20529;-76
2021/08/30 10:05:16;;;;;;;3.23;2.93;;;19.00;99.90;;;;;;5013875;28;20423;-76
2021/08/30 10:07:45;;;;;;;2.30;2.10;;;19.00;99.90;;;;;;5016354;28;20442;-76
2021/08/30 10:10:11;;;;;;;4.73;1.50;;;18.90;99.90;;;;;;5031221;28;20538;-76
2021/08/30 10:12:37;;;;;;;5.10;4.70;;;18.90;99.90;;;;;;5032138;28;20433;-76
2021/08/30 10:15:04;;;;;;;3.23;2.20;;;18.90;99.90;;;;;;5033154;28;20410;-76
2021/08/30 10:17:30;;;;;;;3.97;3.40;;;18.90;99.90;;;;;;5032037;28;20823;-76
2021/08/30 10:20:02;;;;;;;3.53;3.33;;;18.90;99.90;;;;;;5029930;28;20819;-76
2021/08/30 10:22:28;;;;;;;6.03;2.33;;;18.80;99.90;;;;;;5021788;28;21078;-76
2021/08/30 10:24:54;;;;;;;2.73;2.53;;;18.90;99.90;;;;;;5018197;28;20513;-76
2021/08/30 10:27:34;;;;;;;2.30;2.10;;;18.90;99.90;;;;;;5018544;28;20173;-76
2021/08/30 10:30:09;;;;;;;4.70;2.40;;;18.80;99.90;;;;;;5022512;28;20445;-76
2021/08/30 10:32:43;;;;;;;1.83;1.73;;;18.90;99.90;;;;;;5013801;28;20469;-76
2021/08/30 10:35:13;;;;;;;3.13;2.50;;;19.00;99.90;;;;;;5013717;28;20526;-76
2021/08/30 10:37:49;;;;;;;3.07;1.77;;;19.10;99.90;;;;;;5026726;28;20437;-77
2021/08/30 10:40:20;;;;;;;3.17;2.87;;;19.20;99.90;;;;;;5016151;28;20513;-76
2021/08/30 10:43:04;;;;;;;3.50;2.77;;;19.30;99.90;;;;;;5013514;28;20606;-76
2021/08/30 10:45:33;;;;;;;3.27;1.60;;;19.50;99.90;;;;;;5013260;28;20403;-76
2021/08/30 10:48:03;;;;;;;2.80;2.60;;;19.70;99.90;;;;;;5013318;28;20423;-76
2021/08/30 10:50:30;;;;;;;1.33;1.20;;;19.80;99.90;;;;;;5020667;28;20426;-76
2021/08/30 10:53:04;;;;;;;1.67;1.57;;;19.80;99.90;;;;;;5019952;28;20437;-76
2021/08/30 10:55:41;;;;;;;4.07;3.10;;;19.90;99.90;;;;;;5012317;28;20446;-76
2021/08/30 10:58:21;;;;;;;3.33;2.90;;;19.90;99.90;;;;;;5013178;28;20439;-76
2021/08/30 11:00:52;;;;;;;3.00;2.10;;;19.90;99.90;;;;;;5026273;28;20442;-76
2021/08/30 11:03:35;;;;;;;3.90;2.40;;;19.90;99.90;;;;;;5014105;28;20642;-76
2021/08/30 11:06:15;;;;;;;1.43;1.33;;;19.90;99.90;;;;;;5013829;28;20419;-76
2021/08/30 11:08:43;;;;;;;4.60;4.10;;;19.90;99.90;;;;;;5010859;28;20461;-76
2021/08/30 11:11:11;;;;;;;3.30;3.10;;;19.90;99.90;;;;;;5018373;28;20414;-76
2021/08/30 11:13:36;;;;;;;1.23;1.13;;;19.90;99.90;;;;;;5021249;28;20518;-76
2021/08/30 11:16:02;;;;;;;6.10;2.83;;;19.90;99.90;;;;;;5012411;28;21106;-76
2021/08/30 11:18:28;;;;;;;2.03;1.93;;;20.00;99.90;;;;;;5012812;28;20250;-76
2021/08/30 11:20:53;;;;;;;1.87;1.77;;;20.00;99.90;;;;;;5017227;28;20183;-76
2021/08/30 11:23:19;;;;;;;3.43;3.13;;;20.10;99.90;;;;;;5028868;28;20171;-77
2021/08/30 11:25:44;;;;;;;1.90;1.70;;;20.10;99.90;;;;;;5012726;28;20180;-76
2021/08/30 11:28:18;;;;;;;3.80;3.20;;;20.20;99.90;;;;;;5021900;28;20265;-76
2021/08/30 11:30:44;;;;;;;3.00;2.70;;;20.50;99.90;;;;;;5031723;28;20199;-76
2021/08/30 11:33:22;;;;;;;4.73;4.17;;;20.70;99.90;;;;;;5023718;28;20474;-76
2021/08/30 11:35:48;;;;;;;3.33;2.83;;;20.90;99.90;;;;;;5013564;28;20437;-77
2021/08/30 11:38:13;;;;;;;2.80;2.13;;;21.30;99.90;;;;;;5021467;28;20442;-76
2021/08/30 11:40:39;;;;;;;2.43;2.03;;;21.50;99.90;;;;;;5017868;28;20431;-76
2021/08/30 11:43:15;;;;;;;3.43;2.63;;;21.70;99.90;;;;;;5014953;28;20204;-77
2021/08/30 11:45:42;;;;;;;3.20;2.90;;;21.80;99.90;;;;;;5019942;28;20419;-76
2021/08/30 11:48:13;;;;;;;3.83;1.60;;;21.80;99.90;;;;;;5018701;28;20489;-76
2021/08/30 11:50:40;;;;;;;2.87;2.67;;;21.90;99.90;;;;;;5012514;28;20777;-77
2021/08/30 11:53:15;;;;;;;3.20;2.90;;;21.90;99.90;;;;;;5016154;28;20423;-77
2021/08/30 11:55:41;;;;;;;2.13;1.93;;;21.80;99.90;;;;;;5021997;28;20454;-76
2021/08/30 11:58:07;;;;;;;3.77;2.13;;;22.00;99.90;;;;;;5013862;28;20578;-77
2021/08/30 12:00:33;;;;;;;2.37;2.20;;;21.90;99.90;;;;;;5012352;28;20703;-77
2021/08/30 12:03:11;;;;;;;3.00;2.00;;;22.00;99.90;;;;;;5012164;28;20458;-77
2021/08/30 12:05:37;;;;;;;3.73;1.97;;;22.00;99.90;;;;;;5017178;28;20949;-77
2021/08/30 12:08:02;;;;;;;1.80;1.30;;;22.30;99.90;;;;;;5028922;28;20492;-77
2021/08/30 12:10:30;;;;;;;2.73;1.97;;;22.60;99.90;;;;;;5013630;28;20557;-78
2021/08/30 12:15:27;;;;;;;2.37;1.93;;;23.30;99.90;;;;;;5014639;28;20410;-77
2021/08/30 12:17:56;;;;;;;2.97;1.97;;;24.00;99.90;;;;;;5012970;28;20427;-75
2021/08/30 12:20:26;;;;;;;5.10;3.90;;;24.50;99.90;;;;;;5014534;28;20427;-77
2021/08/30 12:22:54;;;;;;;6.00;3.00;;;25.00;99.90;;;;;;5015938;28;20458;-77
2021/08/30 12:25:29;;;;;;;2.30;1.90;;;25.20;99.90;;;;;;5022740;28;20931;-77
2021/08/30 12:27:56;;;;;;;2.17;1.63;;;25.60;99.90;;;;;;5016020;28;20402;-74
2021/08/30 12:30:29;;;;;;;3.37;1.50;;;25.90;99.90;;;;;;5015802;28;20506;-76
2021/08/30 12:33:06;;;;;;;1.43;1.27;;;25.90;99.90;;;;;;5019341;28;20844;-75
2021/08/30 12:35:33;;;;;;;1.63;1.40;;;26.00;99.90;;;;;;5031933;28;20436;-78
2021/08/30 12:38:04;;;;;;;2.57;1.27;;;26.00;99.90;;;;;;5037502;28;20473;-75
2021/08/30 12:40:32;;;;;;;2.43;2.00;;;26.20;99.90;;;;;;5031953;28;20418;-77
2021/08/30 12:42:57;;;;;;;2.03;1.87;;;26.20;99.90;;;;;;5023600;28;20459;-75
2021/08/30 12:45:24;;;;;;;3.40;2.00;;;26.50;99.90;;;;;;5025216;28;20437;-75
2021/08/30 12:47:49;;;;;;;2.90;2.00;;;26.50;99.90;;;;;;5019447;28;20584;-74
2021/08/30 12:50:16;;;;;;;1.83;1.37;;;26.90;99.90;;;;;;5016577;28;20423;-75
2021/08/30 12:52:41;;;;;;;2.53;2.33;;;27.10;99.90;;;;;;5017131;28;20184;-75
2021/08/30 12:55:09;;;;;;;1.47;1.33;;;27.30;99.90;;;;;;5033808;28;20448;-74